Scappoose, OR (97056)

14:43 PDT le 02 septembre 2015 (GMT -0700)
Scappoose, Oregon (GO LAKERS!) | | Change Station
CLOSE
Current Station
Stations météorologiques personnelles
Location: Scappoose, OR
Altitude: 62 ft
Stations météo à proximité

Alt. 62 ft 45.75 °N, 122.87 °W | Updated 3 seconds ago

Couvert
Couvert
72.8 ° F
Paraît 77 ° F
N
3.0
Vent Variable Vent de Ouest
Gusts 11.0 mph

Aujourd'hui
Haut(e) -- | Bas -- ° F
--% Risque de précip.
Hier
Haut(e) -- | Bas -- ° F
Precip. -- pouce
6:33 AM 7:48 PM
Lune gibbeuse décroissante, 77% visible
Pression 29.91 pouce
Visibilité 10.0 Miles terrestres
Nuages Nuageux 4900 ft
indice de chaleur 77 ° F
Point de rosée 44 ° F
Humidité 36%
Précipitations 0.01 pouce
Profondeur de la couche neigeuse Non disponible.
UV 4 sur 12
Pollen .50 sur 12
Qualité de l'air Non disponible.
Flu Activity Non disponible.
METAR KSPB 022053Z AUTO 33005KT 10SM BKN049 22/09 A2991 RMK AO2 SLP128 60000 T02170089 58006
Pression 29.91 pouce
Visibilité 10.0 Miles terrestres
Nuages Nuageux 4900 ft
indice de chaleur 77 ° F
Point de rosée 44 ° F
Humidité 36%
Précipitations 0.01 pouce
Profondeur de la couche neigeuse Non disponible.
UV 4 sur 12
Pollen .50 sur 12
Qualité de l'air Non disponible.
Flu Activity Non disponible.
METAR KSPB 022053Z AUTO 33005KT 10SM BKN049 22/09 A2991 RMK AO2 SLP128 60000 T02170089 58006

10-Day Weather Forecast

×

Almanac

Astronomie

Sep. 02, 2015 Lever Coucher
Temps réel
Crépuscule civil
Crépuscule nautique
Crépuscule astronomique
Lune
Durée de lumière visible
Longueur du jour
Tomorrow will be .
, % of the Moon is Illuminated

Extrêmes aujourd'hui

State Highs State Lows

Community

WunderPhotos

Upload Photos

1,851,818 Photos téléchargées !

WunderBlogs® & News

Nearby

Qualité de l'air

  Qualité de l'air Indice de la qualité de l'air Polluant
Not available.

Épaisseur de neige

Station Depth Altitude

Activité sismique

Ville Distance Mag. Time & Date
Minimum magnitude displayed is 2.5.

Températures des eaux côtières

Lieu Température

Stations

Stations météo à proximité

Emplacement de la station Température Refroidissement éolien Point de rosée Humidité Vent Precip. Alt. Mise à jour Type